createdAt,value
2018-07-21T00:00:33.130Z,68.54
2018-07-21T00:03:00.052Z,68.03
2018-07-21T00:05:27.004Z,68.83
2018-07-21T00:07:53.975Z,69.48
2018-07-21T00:10:20.927Z,69.08
2018-07-21T00:12:47.948Z,68.63
2018-07-21T00:15:14.940Z,68.93
2018-07-21T00:17:41.869Z,68.93
2018-07-21T00:20:12.366Z,69.14
2018-07-21T00:22:39.295Z,70.23
2018-07-21T00:25:07.379Z,69.77
2018-07-21T00:27:34.323Z,70.55
2018-07-21T00:30:01.275Z,70.37
2018-07-21T00:32:28.216Z,70.31
2018-07-21T00:34:55.194Z,70.11
2018-07-21T00:37:22.131Z,70.74
2018-07-21T00:39:49.111Z,71.28
2018-07-21T00:42:16.059Z,71.44
2018-07-21T00:44:43.704Z,71.73
2018-07-21T00:47:10.624Z,71.88
2018-07-21T00:49:37.563Z,71.47
2018-07-21T00:52:04.514Z,71.37
2018-07-21T00:54:31.476Z,71.71
2018-07-21T00:56:58.415Z,72.31
2018-07-21T00:59:25.355Z,72.94
2018-07-21T01:01:52.324Z,73.09
2018-07-21T01:04:19.284Z,73.53
2018-07-21T01:06:46.299Z,72.85
2018-07-21T01:09:13.215Z,73.60
2018-07-21T01:11:40.170Z,74.91
2018-07-21T01:14:07.133Z,74.15
2018-07-21T01:16:34.099Z,73.83
2018-07-21T01:19:01.060Z,73.43
2018-07-21T01:21:28.015Z,74.48
2018-07-21T01:23:55.036Z,73.72
2018-07-21T01:26:21.978Z,73.20
2018-07-21T01:28:48.911Z,73.57
2018-07-21T01:31:15.922Z,72.98
2018-07-21T01:33:42.851Z,73.47
2018-07-21T01:36:10.695Z,73.96
2018-07-21T01:38:37.652Z,73.36
2018-07-21T01:41:04.624Z,74.55
2018-07-21T01:43:31.735Z,73.74
2018-07-21T01:45:58.662Z,75.59
2018-07-21T01:48:25.612Z,75.73
2018-07-21T01:50:52.558Z,75.68
2018-07-21T01:53:19.523Z,75.93
2018-07-21T01:55:46.465Z,75.84
2018-07-21T01:58:13.382Z,75.37
2018-07-21T02:00:40.395Z,75.36
2018-07-21T02:03:07.306Z,76.20
2018-07-21T02:05:34.291Z,75.87
2018-07-21T02:08:01.265Z,75.00
2018-07-21T02:10:28.223Z,74.84
2018-07-21T02:12:55.288Z,75.85
2018-07-21T02:15:22.219Z,75.65
2018-07-21T02:17:49.171Z,75.21
2018-07-21T02:20:16.150Z,75.55
2018-07-21T02:22:43.775Z,75.02
2018-07-21T02:25:10.715Z,73.92
2018-07-21T02:27:37.661Z,74.04
2018-07-21T02:30:04.612Z,71.64
2018-07-21T02:32:31.567Z,71.55
2018-07-21T02:34:58.556Z,71.57
2018-07-21T02:37:25.513Z,70.56
2018-07-21T02:39:52.463Z,71.83
2018-07-21T02:42:19.427Z,69.81
2018-07-21T02:44:46.395Z,71.81
2018-07-21T02:47:13.556Z,72.18
2018-07-21T02:49:40.514Z,72.39
2018-07-21T02:52:08.552Z,73.76
2018-07-21T02:54:35.539Z,72.39
2018-07-21T02:57:02.471Z,74.34
2018-07-21T02:59:29.395Z,72.57
2018-07-21T03:01:56.319Z,73.35
2018-07-21T03:04:23.244Z,74.60
2018-07-21T03:06:50.185Z,74.86
2018-07-21T03:09:17.151Z,74.72
2018-07-21T03:11:44.076Z,74.74
2018-07-21T03:14:11.200Z,75.36
2018-07-21T03:16:38.110Z,76.14
2018-07-21T03:19:05.059Z,75.51
2018-07-21T03:21:32.355Z,75.56
2018-07-21T03:23:59.277Z,76.16
2018-07-21T03:26:26.266Z,75.10
2018-07-21T03:28:53.246Z,76.17
2018-07-21T03:31:20.275Z,74.57
2018-07-21T03:33:47.174Z,75.24
2018-07-21T03:36:14.091Z,75.05
2018-07-21T03:38:41.015Z,75.14
2018-07-21T03:41:07.981Z,75.90
2018-07-21T03:43:34.923Z,74.20
2018-07-21T03:46:01.899Z,75.14
2018-07-21T03:48:28.853Z,74.85
2018-07-21T03:50:55.811Z,75.30
2018-07-21T03:53:22.734Z,76.52
2018-07-21T03:55:52.679Z,76.74
2018-07-21T03:58:19.647Z,76.48
2018-07-21T04:00:46.591Z,77.20
2018-07-21T04:03:13.519Z,77.84
2018-07-21T04:05:40.483Z,77.83
2018-07-21T04:08:07.431Z,77.59
2018-07-21T04:10:34.389Z,77.70
2018-07-21T04:13:01.359Z,77.36
2018-07-21T04:15:28.329Z,76.04
2018-07-21T04:17:55.295Z,76.76
2018-07-21T04:20:22.243Z,75.22
2018-07-21T04:22:50.203Z,75.83
2018-07-21T04:25:18.152Z,76.06
2018-07-21T04:27:45.088Z,76.67
2018-07-21T04:30:12.045Z,76.09
2018-07-21T04:32:38.990Z,77.56
2018-07-21T04:35:05.956Z,78.24
2018-07-21T04:37:32.903Z,78.35
2018-07-21T04:39:59.848Z,76.92
2018-07-21T04:42:26.806Z,76.56
2018-07-21T04:44:55.332Z,76.16
2018-07-21T04:47:22.273Z,75.02
2018-07-21T04:49:49.214Z,75.29
2018-07-21T04:52:16.135Z,75.27
2018-07-21T04:54:43.111Z,75.60
2018-07-21T04:57:10.085Z,75.21
2018-07-21T04:59:37.046Z,73.65
2018-07-21T05:02:04.056Z,74.39
2018-07-21T05:04:31.023Z,74.33
2018-07-21T05:06:57.992Z,73.99
2018-07-21T05:09:24.935Z,75.72
2018-07-21T05:11:51.870Z,75.05
2018-07-21T05:14:18.799Z,75.29
2018-07-21T05:16:45.783Z,74.62
2018-07-21T05:19:12.809Z,74.94
2018-07-21T05:21:39.794Z,73.26
2018-07-21T05:24:06.749Z,74.61
2018-07-21T05:26:34.235Z,75.05
2018-07-21T05:29:01.184Z,75.14
2018-07-21T05:31:29.195Z,76.70
2018-07-21T05:33:56.156Z,75.89
2018-07-21T05:36:23.101Z,76.68
2018-07-21T05:38:50.095Z,74.41
2018-07-21T05:41:17.059Z,76.39
2018-07-21T05:43:44.009Z,76.53
2018-07-21T05:46:10.947Z,76.25
2018-07-21T05:48:37.927Z,77.02
2018-07-21T05:51:04.963Z,77.44
2018-07-21T05:53:31.905Z,78.71
2018-07-21T05:55:58.892Z,77.42
2018-07-21T05:58:25.863Z,76.09
2018-07-21T06:00:52.828Z,77.35
2018-07-21T06:03:19.787Z,77.25
2018-07-21T06:05:46.743Z,75.92
2018-07-21T06:08:14.051Z,76.42
2018-07-21T06:10:41.220Z,77.03
2018-07-21T06:13:08.199Z,77.15
2018-07-21T06:15:35.184Z,78.12
2018-07-21T06:18:02.161Z,80.04
2018-07-21T06:20:29.157Z,80.69
2018-07-21T06:22:56.091Z,79.60
2018-07-21T06:25:23.076Z,79.78
2018-07-21T06:27:50.044Z,79.71
2018-07-21T06:30:17.035Z,79.29
2018-07-21T06:32:44.186Z,78.33
2018-07-21T06:35:11.155Z,79.81
2018-07-21T06:37:38.198Z,80.27
2018-07-21T06:40:05.230Z,81.68
2018-07-21T06:42:32.220Z,83.29
2018-07-21T06:44:59.550Z,81.12
2018-07-21T06:47:26.636Z,82.55
2018-07-21T06:49:53.603Z,80.41
2018-07-21T06:52:20.611Z,80.13
2018-07-21T06:54:47.588Z,79.57
2018-07-21T06:57:14.839Z,78.95
2018-07-21T06:59:41.879Z,78.59
2018-07-21T07:02:08.961Z,77.70
2018-07-21T07:04:36.148Z,78.09
2018-07-21T07:07:03.104Z,77.52
2018-07-21T07:09:30.092Z,77.93
2018-07-21T07:11:57.117Z,78.78
2018-07-21T07:14:24.089Z,79.23
2018-07-21T07:16:51.079Z,78.61
2018-07-21T07:19:18.104Z,78.79
2018-07-21T07:21:45.099Z,79.62
2018-07-21T07:24:12.075Z,79.24
2018-07-21T07:26:39.093Z,78.58
2018-07-21T07:29:06.083Z,78.09
2018-07-21T07:31:33.091Z,77.78
2018-07-21T07:34:00.107Z,78.42
2018-07-21T07:36:27.089Z,78.11
2018-07-21T07:38:54.072Z,78.15
2018-07-21T07:41:21.099Z,77.32
2018-07-21T07:43:48.080Z,77.50
2018-07-21T07:46:15.085Z,77.94
2018-07-21T07:48:42.080Z,77.56
2018-07-21T07:51:09.186Z,76.79
2018-07-21T07:53:36.135Z,76.04
2018-07-21T07:56:03.127Z,76.07
2018-07-21T07:58:30.408Z,76.31
2018-07-21T08:00:57.446Z,76.19
2018-07-21T08:03:24.559Z,76.86
2018-07-21T08:05:51.563Z,76.52
2018-07-21T08:08:18.614Z,77.74
2018-07-21T08:10:45.539Z,77.53
2018-07-21T08:13:13.544Z,77.82
2018-07-21T08:15:40.605Z,78.17
2018-07-21T08:18:10.642Z,79.49
2018-07-21T08:20:37.624Z,80.79
2018-07-21T08:23:04.647Z,82.24
2018-07-21T08:25:31.640Z,81.96
2018-07-21T08:27:58.652Z,82.60
2018-07-21T08:30:25.683Z,83.63
2018-07-21T08:32:52.691Z,81.89
2018-07-21T08:35:19.736Z,83.10
2018-07-21T08:37:46.723Z,83.26
2018-07-21T08:40:13.708Z,82.37
2018-07-21T08:42:40.732Z,84.04
2018-07-21T08:45:08.198Z,81.14
2018-07-21T08:47:35.171Z,83.32
2018-07-21T08:50:02.172Z,82.06
2018-07-21T08:52:29.203Z,82.68
2018-07-21T08:54:56.176Z,83.25
2018-07-21T08:57:23.224Z,82.16
2018-07-21T08:59:50.418Z,83.01
2018-07-21T09:02:17.380Z,82.63
2018-07-21T09:04:44.439Z,83.12
2018-07-21T09:07:11.428Z,82.60
2018-07-21T09:09:38.479Z,81.11
2018-07-21T09:12:06.507Z,80.98
2018-07-21T09:14:33.508Z,80.88
2018-07-21T09:17:00.496Z,79.85
2018-07-21T09:19:27.495Z,79.20
2018-07-21T09:21:54.667Z,77.98
2018-07-21T09:24:21.694Z,76.89
2018-07-21T09:26:48.695Z,74.65
2018-07-21T09:29:16.700Z,74.78
2018-07-21T09:31:45.659Z,74.48
2018-07-21T09:34:12.702Z,71.58
2018-07-21T09:36:39.676Z,71.67
2018-07-21T09:39:08.236Z,71.29
2018-07-21T09:41:35.288Z,70.45
2018-07-21T09:44:02.339Z,72.18
2018-07-21T09:46:29.340Z,71.53
2018-07-21T09:48:56.336Z,73.05
2018-07-21T09:51:24.445Z,72.27
2018-07-21T09:53:51.491Z,72.72
2018-07-21T09:56:18.503Z,68.08
2018-07-21T09:58:45.476Z,68.36
2018-07-21T10:01:12.927Z,69.48
2018-07-21T10:03:40.011Z,66.60
2018-07-21T10:06:07.025Z,68.02
2018-07-21T10:08:34.015Z,68.19
2018-07-21T10:11:01.035Z,70.97
2018-07-21T10:13:28.030Z,72.44
2018-07-21T10:15:55.011Z,71.28
2018-07-21T10:18:22.000Z,72.96
2018-07-21T10:20:49.057Z,72.69
2018-07-21T10:23:16.083Z,71.79
2018-07-21T10:25:48.666Z,70.54
2018-07-21T10:28:22.288Z,67.00
2018-07-21T10:30:49.144Z,66.82
2018-07-21T10:33:16.146Z,67.45
2018-07-21T10:35:43.116Z,68.78
2018-07-21T10:38:10.268Z,64.80
2018-07-21T10:40:37.266Z,63.70
2018-07-21T10:43:04.299Z,62.95
2018-07-21T10:45:31.360Z,61.55
2018-07-21T10:47:58.391Z,60.64
2018-07-21T10:50:25.376Z,60.58
2018-07-21T10:52:52.392Z,60.23
2018-07-21T10:55:23.283Z,58.75
2018-07-21T10:57:50.658Z,55.88
2018-07-21T11:00:17.713Z,54.62
2018-07-21T11:02:44.718Z,54.76
2018-07-21T11:05:11.711Z,53.80
2018-07-21T11:07:38.869Z,53.52
2018-07-21T11:10:05.867Z,51.54
2018-07-21T11:12:32.857Z,50.05
2018-07-21T11:14:59.855Z,50.02
2018-07-21T11:17:26.857Z,50.87
2018-07-21T11:19:53.822Z,48.78
2018-07-21T11:22:20.830Z,47.79
2018-07-21T11:24:50.824Z,47.65
2018-07-21T11:27:17.817Z,48.09
2018-07-21T11:29:44.855Z,48.88
2018-07-21T11:32:11.839Z,48.81
2018-07-21T11:34:38.870Z,46.49
2018-07-21T11:37:06.024Z,48.94
2018-07-21T11:39:33.007Z,48.23
2018-07-21T11:42:00.016Z,48.84
2018-07-21T11:44:27.919Z,47.50
2018-07-21T11:46:54.856Z,48.49
2018-07-21T11:49:21.867Z,48.64
2018-07-21T11:51:48.865Z,47.89
2018-07-21T11:54:15.902Z,46.91
2018-07-21T11:56:42.985Z,46.41
2018-07-21T11:59:10.032Z,46.91
2018-07-21T12:01:37.279Z,45.93
2018-07-21T12:04:04.308Z,46.90
2018-07-21T12:06:31.326Z,48.32
2018-07-21T12:08:58.310Z,49.07
2018-07-21T12:11:25.403Z,47.75
2018-07-21T12:13:52.474Z,48.38
2018-07-21T12:16:19.457Z,45.90
2018-07-21T12:18:46.449Z,49.12
2018-07-21T12:21:13.544Z,49.75
2018-07-21T12:23:40.606Z,47.88
2018-07-21T12:26:07.614Z,45.84
2018-07-21T12:28:34.604Z,47.51
2018-07-21T12:31:01.665Z,45.13
2018-07-21T12:33:28.707Z,45.47
2018-07-21T12:35:55.704Z,47.24
2018-07-21T12:38:22.698Z,45.91
2018-07-21T12:40:49.720Z,47.43
2018-07-21T12:43:16.771Z,47.88
2018-07-21T12:45:43.787Z,45.35
2018-07-21T12:48:10.855Z,46.68
2018-07-21T12:50:37.870Z,47.68
2018-07-21T12:53:04.907Z,46.21
2018-07-21T12:55:31.949Z,45.47
2018-07-21T12:57:59.021Z,44.74
2018-07-21T13:00:26.700Z,43.84
2018-07-21T13:02:53.709Z,41.89
2018-07-21T13:05:20.691Z,42.13
2018-07-21T13:07:47.675Z,44.95
2018-07-21T13:10:14.668Z,45.24
2018-07-21T13:12:41.721Z,48.32
2018-07-21T13:15:08.803Z,49.41
2018-07-21T13:17:35.814Z,52.72
2018-07-21T13:20:02.859Z,52.25
2018-07-21T13:22:29.880Z,53.15
2018-07-21T13:24:57.012Z,51.34
2018-07-21T13:27:24.007Z,51.57
2018-07-21T13:29:51.024Z,51.81
2018-07-21T13:32:18.074Z,51.14
2018-07-21T13:34:45.325Z,51.44
2018-07-21T13:37:12.369Z,57.18
2018-07-21T13:39:39.379Z,62.34
2018-07-21T13:42:06.375Z,65.70
2018-07-21T13:44:33.366Z,67.98
2018-07-21T13:47:00.369Z,71.50
2018-07-21T13:49:27.498Z,72.80
2018-07-21T13:51:54.532Z,73.97
2018-07-21T13:54:21.518Z,76.28
2018-07-21T13:56:48.507Z,78.08
2018-07-21T13:59:16.320Z,75.63
2018-07-21T14:01:43.307Z,76.66
2018-07-21T14:04:10.295Z,77.43
2018-07-21T14:06:37.311Z,77.48
2018-07-21T14:09:06.326Z,75.20
2018-07-21T14:11:33.307Z,76.75
2018-07-21T14:14:00.290Z,81.97
2018-07-21T14:16:27.283Z,85.34
2018-07-21T14:18:54.511Z,89.26
2018-07-21T14:21:21.523Z,92.16
2018-07-21T14:23:48.572Z,91.69
2018-07-21T14:26:15.506Z,92.28
2018-07-21T14:28:43.286Z,93.67
2018-07-21T14:31:10.283Z,94.05
2018-07-21T14:33:37.279Z,92.36
2018-07-21T14:36:04.755Z,92.60
2018-07-21T14:38:31.962Z,91.53
2018-07-21T14:40:58.935Z,91.81
2018-07-21T14:43:26.008Z,91.30
2018-07-21T14:45:53.012Z,92.26
2018-07-21T14:48:20.012Z,91.52
2018-07-21T15:01:49.349Z,89.73
2018-07-21T15:04:16.381Z,89.31
2018-07-21T15:06:43.538Z,88.85
2018-07-21T15:09:11.984Z,89.04
2018-07-21T15:11:40.231Z,91.72
2018-07-21T15:14:07.416Z,89.92
2018-07-21T15:16:35.743Z,88.92
2018-07-21T15:19:03.364Z,90.91
2018-07-21T15:21:31.324Z,90.35
2018-07-21T15:24:03.281Z,91.22
2018-07-21T15:26:31.300Z,89.10
2018-07-21T15:29:01.336Z,91.96
2018-07-21T15:31:29.406Z,91.73
2018-07-21T15:33:56.580Z,91.08
2018-07-21T15:36:24.564Z,91.29
2018-07-21T15:38:52.425Z,88.52
2018-07-21T15:41:19.476Z,90.28
2018-07-21T15:43:46.594Z,89.26
2018-07-21T15:46:13.736Z,87.46
2018-07-21T15:48:43.399Z,89.00
2018-07-21T15:51:10.554Z,86.59
2018-07-21T15:53:38.437Z,87.60
2018-07-21T15:56:07.524Z,89.28
2018-07-21T15:58:34.742Z,89.31
2018-07-21T16:01:01.820Z,88.65
2018-07-21T16:03:33.380Z,87.94
2018-07-21T16:06:01.373Z,86.24
2018-07-21T16:08:28.484Z,84.74
2018-07-21T16:10:55.552Z,85.52
2018-07-21T16:13:22.616Z,86.45
2018-07-21T16:15:50.502Z,86.98
2018-07-21T16:18:20.484Z,87.16
2018-07-21T16:20:48.572Z,84.36
2018-07-21T16:23:15.634Z,86.09
2018-07-21T16:25:43.021Z,86.81
2018-07-21T16:28:10.148Z,85.29
2018-07-21T16:30:37.816Z,87.15
2018-07-21T16:33:06.874Z,84.97
2018-07-21T16:35:34.001Z,87.95
2018-07-21T16:38:01.138Z,87.64
2018-07-21T16:40:29.212Z,85.68
2018-07-21T16:42:56.294Z,86.52
2018-07-21T16:45:24.408Z,87.28
2018-07-21T16:47:51.508Z,85.84
2018-07-21T16:50:18.627Z,86.88
2018-07-21T16:52:47.368Z,88.76
2018-07-21T16:55:14.481Z,86.40
2018-07-21T16:57:41.712Z,86.31
2018-07-21T17:00:08.999Z,84.66
2018-07-21T17:02:36.195Z,87.12
2018-07-21T17:05:05.012Z,86.41
2018-07-21T17:07:33.840Z,87.34
2018-07-21T17:10:00.989Z,86.54
2018-07-21T17:12:29.072Z,86.87
2018-07-21T17:14:56.911Z,85.37
2018-07-21T17:17:24.024Z,86.27
2018-07-21T17:19:52.924Z,86.92
2018-07-21T17:22:21.908Z,88.12
2018-07-21T17:24:48.963Z,88.15
2018-07-21T17:29:44.032Z,88.34
2018-07-21T17:32:11.976Z,88.20
2018-07-21T17:34:39.159Z,85.58
2018-07-21T17:37:06.241Z,84.25
2018-07-21T17:39:35.912Z,86.15
2018-07-21T17:42:04.016Z,88.01
2018-07-21T17:44:32.076Z,85.65
2018-07-21T17:46:59.149Z,84.21
2018-07-21T17:49:27.228Z,86.89
2018-07-21T17:52:02.112Z,86.91
2018-07-21T17:54:30.937Z,87.46
2018-07-21T17:56:59.944Z,87.59
2018-07-21T17:59:27.929Z,87.83
2018-07-21T18:01:55.003Z,88.28
2018-07-21T18:04:22.079Z,88.06
2018-07-21T18:06:49.172Z,87.20
2018-07-21T18:09:16.213Z,88.54
2018-07-21T18:11:43.376Z,88.59
2018-07-21T18:14:10.626Z,88.54
2018-07-21T18:16:37.751Z,88.36
2018-07-21T18:19:05.305Z,89.64
2018-07-21T18:21:32.376Z,88.96
2018-07-21T18:23:59.680Z,88.82
2018-07-21T18:26:27.605Z,89.92
2018-07-21T18:28:54.813Z,89.05
2018-07-21T18:31:23.577Z,88.82
2018-07-21T18:33:55.779Z,89.14
2018-07-21T18:36:23.447Z,86.61
2018-07-21T18:38:51.531Z,89.08
2018-07-21T18:41:18.635Z,89.33
2018-07-21T18:43:46.400Z,88.82
2018-07-21T18:46:20.409Z,89.29
2018-07-21T18:48:47.557Z,89.76
2018-07-21T18:51:14.719Z,89.84
2018-07-21T18:53:44.917Z,89.57
2018-07-21T18:56:12.020Z,89.38
2018-07-21T18:58:40.097Z,90.34
2018-07-21T19:01:07.824Z,90.61
2018-07-21T19:03:36.648Z,88.27
2018-07-21T19:06:03.809Z,86.77
2018-07-21T19:08:36.533Z,89.40
2018-07-21T19:11:04.732Z,87.29
2018-07-21T19:13:31.844Z,86.61
2018-07-21T19:16:06.432Z,88.74
2018-07-21T19:18:34.069Z,89.68
2018-07-21T19:21:06.940Z,89.62
2018-07-21T19:23:35.010Z,90.36
2018-07-21T19:26:10.720Z,90.54
2018-07-21T19:28:38.590Z,90.97
2018-07-21T19:31:10.636Z,90.31
2018-07-21T19:33:38.793Z,88.16
2018-07-21T19:36:09.664Z,89.79
2018-07-21T19:38:36.809Z,89.65
2018-07-21T19:41:10.828Z,90.18
2018-07-21T19:43:38.500Z,91.41
2018-07-21T19:46:07.637Z,93.29
2018-07-21T19:48:34.688Z,93.66
2018-07-21T19:51:02.947Z,92.84
2018-07-21T19:53:33.488Z,93.58
2018-07-21T19:56:00.952Z,92.28
2018-07-21T19:58:32.129Z,92.32
2018-07-21T20:02:58.006Z,90.04
2018-07-21T20:05:26.112Z,91.99
2018-07-21T20:07:55.119Z,91.25
2018-07-21T20:10:23.181Z,91.15
2018-07-21T20:12:50.293Z,91.56
2018-07-21T20:15:17.366Z,92.47
2018-07-21T20:17:47.105Z,92.15
2018-07-21T20:20:14.124Z,91.99
2018-07-21T20:22:41.261Z,92.21
2018-07-21T20:25:08.326Z,93.31
2018-07-21T20:27:35.454Z,93.08
2018-07-21T20:30:04.653Z,92.79
2018-07-21T20:32:34.563Z,90.40
2018-07-21T20:35:02.566Z,90.94
2018-07-21T20:37:30.532Z,91.22
2018-07-21T20:40:04.945Z,92.21
2018-07-21T20:42:32.202Z,92.35
2018-07-21T20:44:59.392Z,92.61
2018-07-21T20:47:26.523Z,92.02
2018-07-21T20:49:53.607Z,92.71
2018-07-21T20:52:24.149Z,93.30
2018-07-21T20:54:51.356Z,91.44
2018-07-21T20:57:18.452Z,92.74
2018-07-21T20:59:45.708Z,92.46
2018-07-21T21:02:14.820Z,92.38
2018-07-21T21:04:45.684Z,92.47
2018-07-21T21:07:15.656Z,92.47
2018-07-21T21:09:43.740Z,92.99
2018-07-21T21:12:14.591Z,93.73
2018-07-21T21:14:42.554Z,93.45
2018-07-21T21:17:09.708Z,92.99
2018-07-21T21:19:38.836Z,93.87
2018-07-21T21:22:06.097Z,93.02
2018-07-21T21:24:33.119Z,92.78
2018-07-21T21:27:02.163Z,93.14
2018-07-21T21:29:30.103Z,90.48
2018-07-21T21:31:57.168Z,91.18
2018-07-21T21:34:25.133Z,89.77
2018-07-21T21:36:54.215Z,88.75
2018-07-21T21:39:24.650Z,90.12
2018-07-21T21:41:53.121Z,91.16
2018-07-21T21:44:21.776Z,89.79
2018-07-21T21:46:49.540Z,91.15
2018-07-21T21:49:16.643Z,91.91
2018-07-21T21:51:44.605Z,90.06
2018-07-21T21:54:12.629Z,92.22
2018-07-21T21:56:39.695Z,92.18
2018-07-21T21:59:06.948Z,93.03
2018-07-21T22:01:37.838Z,89.37
2018-07-21T22:04:06.695Z,91.26
2018-07-21T22:06:33.716Z,92.46
2018-07-21T22:09:07.612Z,92.71
2018-07-21T22:11:35.792Z,92.79
2018-07-21T22:14:02.904Z,92.75
2018-07-21T22:16:30.011Z,92.16
2018-07-21T22:19:00.978Z,89.84
2018-07-21T22:21:29.588Z,91.04
2018-07-21T22:23:58.590Z,91.25
2018-07-21T22:26:26.697Z,89.13
2018-07-21T22:28:53.789Z,91.35
2018-07-21T22:31:21.140Z,89.97
2018-07-21T22:33:48.228Z,91.82
2018-07-21T22:36:15.304Z,91.99
2018-07-21T22:38:43.081Z,91.17
2018-07-21T22:41:10.357Z,89.70
2018-07-21T22:43:37.453Z,88.70
2018-07-21T22:46:04.628Z,87.29
2018-07-21T22:48:36.732Z,87.09
2018-07-21T22:51:05.810Z,89.42
2018-07-21T22:53:32.900Z,90.26
2018-07-21T22:55:59.924Z,90.38
2018-07-21T22:58:28.104Z,91.91
2018-07-21T23:00:56.132Z,90.22
2018-07-21T23:03:23.128Z,92.00
2018-07-21T23:05:51.200Z,89.55
2018-07-21T23:08:23.501Z,88.14
2018-07-21T23:10:51.088Z,90.64
2018-07-21T23:13:21.392Z,89.84
2018-07-21T23:15:50.168Z,90.11
2018-07-21T23:18:17.336Z,87.02
2018-07-21T23:20:46.175Z,88.14
2018-07-21T23:23:13.233Z,89.25
2018-07-21T23:25:40.569Z,88.92
2018-07-21T23:28:07.802Z,90.28
2018-07-21T23:30:35.579Z,90.97
2018-07-21T23:33:02.700Z,90.63
2018-07-21T23:35:30.606Z,92.11
2018-07-21T23:37:57.580Z,89.30
2018-07-21T23:40:25.179Z,90.09
2018-07-21T23:42:54.099Z,90.39
2018-07-21T23:45:22.760Z,88.41
2018-07-21T23:47:49.836Z,89.37
2018-07-21T23:50:20.645Z,90.39
2018-07-21T23:52:47.656Z,89.14
2018-07-21T23:55:14.744Z,89.96
2018-07-21T23:57:41.794Z,91.06
